Details From KFWN - Sussex
To KFNT - Bishop Intl
Flight Number -
Tags Decoded
Created
Modified
Stats Distance 418 nm / 774 km
Max Altitude 0 ft / 0 m
Waypoints 2
Social Downloads 1
Likes 0
Share VATSIM

Download

Looking for another format? Having issues loading an existing format? Contact us
Advertisement - Login to hide

Notes

Decoded

Route

COATE FNT

ID Type Via Altitude Latitude Longitude Leg Dist Tot Dist Heading (true) Name
O COATE FIX - 0 ft / 0 m 41.13622˚ -74.69517˚ - 0 nm - -
O FNT VOR - 0 ft / 0 m 42.96678˚ -83.74697˚ 418 nm 418 nm 288° / 282° FLINT VORTAC

Altitude Profile

Advertisement - Login to hide

Weather


0- 5 10 15 20 25 30 35+ Temperature / ° C

Clouds and Precipitation
Forecast for 2017-12-12 12:00 UTC. Updated an hour ago

Ground ~20,000 ft ~40,000 ft Winds

KFWN

Details ICAO KFWN
Name SUSSEX
Region United States
Timezone America/New_York (UTC-5.0)
Stats Elevation 421 ft / 128 m (AMSL)
Location 41.200198° -74.623039°
Runways 1
Magnetic Variation 12.697° W

METAR

KFWN 120753Z AUTO 16004KT 10SM OVC070 02/M04 A2980 RMK AO2 SLP093 T00221044

Decode

TAF

Not found

Departure Runways

ID Width Length Bearing (true) Bearing (mag) Surface Threshold Offset Overrun Length
03 75 ft / 23 m 3,503 ft / 1,068 m 15.89° 28.59° Asphalt 1,100 ft / 335 m 0 ft / 0 m
21 75 ft / 23 m 3,503 ft / 1,068 m 195.89° 208.59° Asphalt 750 ft / 229 m 0 ft / 0 m

KFNT

Details ICAO KFNT (FNT)
Name Bishop Intl
Region United States
Timezone America/Detroit (UTC-5.0)
Stats Elevation 782 ft / 238 m (AMSL)
Location 42.965505° -83.742996°
Runways 3
Magnetic Variation 7.163° W

METAR

KFNT 120825Z AUTO 32015G26KT 6SM -SN BKN022 BKN029 OVC055 M03/M07 A2971

Decode

TAF

KFNT 120626Z 1206/1306 32012KT 4SM -SHSN SCT015 OVC025 TEMPO 1206/1210 2SM -SHSN BKN015 OVC025 FM121000 31016G27KT P6SM BKN025 OVC035 FM121300 31018G30KT P6SM BKN035 FM130100 31012KT P6SM SCT035

Decode

Destination Runways

ID Width Length Bearing (true) Bearing (mag) Surface Threshold Offset Overrun Length
05 150 ft / 46 m 3,921 ft / 1,195 m 46.43° 53.59° Asphalt 0 ft / 0 m 649 ft / 198 m
09 150 ft / 46 m 7,183 ft / 2,189 m 88.24° 95.40° Asphalt 0 ft / 0 m 0 ft / 0 m
18 150 ft / 46 m 7,858 ft / 2,395 m 179.13° 186.29° Asphalt 199 ft / 61 m 0 ft / 0 m
23 150 ft / 46 m 3,921 ft / 1,195 m 226.43° 233.59° Asphalt 0 ft / 0 m 0 ft / 0 m
27 150 ft / 46 m 7,183 ft / 2,189 m 268.25° 275.41° Asphalt 0 ft / 0 m 0 ft / 0 m
36 150 ft / 46 m 7,858 ft / 2,395 m 359.13° 6.29° Asphalt 0 ft / 0 m 0 ft / 0 m

Approach Navaids

Runway Type Ident Frequency Range Bearing (true) Bearing (mag) Slope Elevation
09 Localiser IFNT 109.90 MHz 18 nm / 33 km 88.26° 95.42° - 782 ft / 238 m (AMSL)
09 Glidescope IFNT 109.90 MHz 10 nm / 19 km 88.25° 95.41° 2.80° 762 ft / 232 m (AMSL)
27 Localiser ITUN 109.90 MHz 18 nm / 33 km 268.24° 275.40° - 756 ft / 230 m (AMSL)
27 Glidescope ITUN 109.90 MHz 10 nm / 19 km 268.25° 275.41° 3.00° 766 ft / 233 m (AMSL)